Portada
METAR-TAF:

METAR-TAF

Aeroports :

Alice Springs, Austràlia

latitud: 23-48S, longitud: 133-53E, altitud: 545 m

Observació

L'informe es va fer fa 38 minuts, a les 21:00 UTC
Vent 6 kt del Sud/Sud-Est
Temperatura 24°C
Humitat 31%
Pressió 1015 hPa
Visibilitat 10 km o més

METAR: YBAS 192100Z AUTO 15006KT 9999 // NCD 24/06 Q1015

Hora: 07:08 (21:38 UTC)

Pronòstic

L'informe es va fer fa 4 hores i 17 minuts, a les 17:21 UTC
Pronòstic vàlid del 19 a les 18 UTC al 20 a les 18 UTC
Vent 8 kt del Est/Sud-Est
Visibilitat 10 km o més
sense núvols per sota de 1500 mi sense presència de cumulonimbus.
A partir de les 19 a les 2300 UTC
Vent 14 kt del Est/Sud-Est
Visibilitat 10 km o més
sense núvols per sota de 1500 mi sense presència de cumulonimbus.
A partir de les 20 a les 0300 UTC
Vent 10 kt del Est/Sud-Est
Visibilitat 10 km o més
sense núvols per sota de 1500 mi sense presència de cumulonimbus.

TAF: YBAS 191721Z 1918/2018 12008KT CAVOK FM192300 11014KT CAVOK FM200300 11010KT CAVOK

Observacions i pronòstics meteorològics de més de 4000 aeroports (METAR i TAF).

Les estacions disponibles són els punts grocs i vermells al mapa.

Posi el ratolí al punt desitjat per veure el nom de l'estació.

Feu clic per veure les observacions i els pronòstics meteorològics.

Per canviar el mapa: feu clic els botons verds amb una creu de color negre per apropar; al botó verd amb un guió per allunyar la imatge; o en les fletxes verdes per a mapes adjacents.


METAR-TAF: